DHX673 TFFR-TNCM
Flight info
| Callsign | DHX673 |
|---|---|
| Flight time | 0h 31m |
| Altitude | 16000 |
| Route | BIMBO2R BIMBO A517 SKB DCT ZPATA A517 PJM |
| Aircraft | B738/M-SDE2E3FGHIRWXY/LB1 |
Departure
| Time | 2026-04-26 12:51 |
|---|---|
| Airport | Maryse Condé International Airport (TFFR) |
Arrival
| Time | 2026-04-26 13:23 |
|---|---|
| Airport | Princess Juliana International Airport (TNCM) |
| Time | Latitude | Longitude | Altitude | Speed | Heading |
|---|---|---|---|---|---|
| 2026-04-26 12:14 | 16.26760 | -61.52094 | 43 ft | 0 kts | 66° |
| 2026-04-26 12:47 | 16.26762 | -61.52092 | 43 ft | 2 kts | 58° |
| 2026-04-26 12:48 | 16.26785 | -61.52109 | 42 ft | 10 kts | 250° |
| 2026-04-26 12:48 | 16.26700 | -61.52179 | 40 ft | 20 kts | 201° |
| 2026-04-26 12:48 | 16.26566 | -61.52193 | 40 ft | 19 kts | 163° |
| 2026-04-26 12:48 | 16.26496 | -61.52075 | 44 ft | 21 kts | 102° |
| 2026-04-26 12:49 | 16.26474 | -61.51918 | 49 ft | 22 kts | 102° |
| 2026-04-26 12:49 | 16.26408 | -61.51799 | 54 ft | 20 kts | 168° |
| 2026-04-26 12:49 | 16.26277 | -61.51843 | 52 ft | 22 kts | 262° |
| 2026-04-26 12:49 | 16.26287 | -61.51891 | 51 ft | 0 kts | 283° |
| 2026-04-26 12:50 | 16.26291 | -61.51911 | 50 ft | 16 kts | 284° |
| 2026-04-26 12:50 | 16.26368 | -61.52306 | 38 ft | 108 kts | 281° |
| 2026-04-26 12:51 | 16.26592 | -61.53424 | 149 ft | 196 kts | 280° |
| 2026-04-26 12:51 | 16.26648 | -61.54881 | 1020 ft | 232 kts | 261° |
| 2026-04-26 12:51 | 16.26230 | -61.56696 | 1890 ft | 279 kts | 256° |
| 2026-04-26 12:51 | 16.26307 | -61.58737 | 3324 ft | 302 kts | 283° |
| 2026-04-26 12:52 | 16.27072 | -61.60811 | 4857 ft | 318 kts | 291° |
| 2026-04-26 12:52 | 16.28118 | -61.62821 | 6294 ft | 318 kts | 307° |
| 2026-04-26 12:52 | 16.29694 | -61.64379 | 7367 ft | 316 kts | 319° |
| 2026-04-26 12:52 | 16.31380 | -61.65837 | 8213 ft | 313 kts | 318° |
| 2026-04-26 12:53 | 16.33014 | -61.67318 | 9045 ft | 317 kts | 316° |
| 2026-04-26 12:53 | 16.34653 | -61.68862 | 9880 ft | 321 kts | 315° |
| 2026-04-26 12:53 | 16.36302 | -61.70447 | 10719 ft | 324 kts | 315° |
| 2026-04-26 12:53 | 16.37967 | -61.72062 | 11561 ft | 327 kts | 314° |
| 2026-04-26 12:54 | 16.39626 | -61.73676 | 12390 ft | 330 kts | 314° |
| 2026-04-26 12:54 | 16.41315 | -61.75322 | 13221 ft | 335 kts | 314° |
| 2026-04-26 12:54 | 16.43016 | -61.76980 | 14047 ft | 341 kts | 314° |
| 2026-04-26 12:54 | 16.44771 | -61.78696 | 14876 ft | 350 kts | 313° |
| 2026-04-26 12:55 | 16.46557 | -61.80447 | 15590 ft | 361 kts | 314° |
| 2026-04-26 12:55 | 16.48449 | -61.82306 | 15908 ft | 375 kts | 313° |
| 2026-04-26 12:55 | 16.50347 | -61.84174 | 15979 ft | 383 kts | 313° |
| 2026-04-26 12:55 | 16.52326 | -61.86117 | 15989 ft | 386 kts | 313° |
| 2026-04-26 12:56 | 16.54281 | -61.88026 | 15990 ft | 386 kts | 313° |
| 2026-04-26 12:56 | 16.56238 | -61.89929 | 15990 ft | 385 kts | 313° |
| 2026-04-26 12:56 | 16.58223 | -61.91861 | 15990 ft | 385 kts | 313° |
| 2026-04-26 12:56 | 16.60163 | -61.93754 | 15991 ft | 384 kts | 313° |
| 2026-04-26 12:57 | 16.62128 | -61.95670 | 15992 ft | 385 kts | 313° |
| 2026-04-26 12:57 | 16.64017 | -61.97662 | 15991 ft | 384 kts | 309° |
| 2026-04-26 12:57 | 16.65812 | -61.99756 | 15993 ft | 383 kts | 308° |
| 2026-04-26 12:58 | 16.69318 | -62.03933 | 15993 ft | 384 kts | 308° |
| 2026-04-26 12:58 | 16.71104 | -62.06039 | 15994 ft | 384 kts | 308° |
| 2026-04-26 12:58 | 16.72878 | -62.08117 | 15994 ft | 384 kts | 308° |
| 2026-04-26 12:58 | 16.74668 | -62.10210 | 15996 ft | 384 kts | 308° |
| 2026-04-26 12:59 | 16.76439 | -62.12283 | 15997 ft | 383 kts | 308° |
| 2026-04-26 12:59 | 16.78214 | -62.14365 | 15997 ft | 384 kts | 308° |
| 2026-04-26 12:59 | 16.80008 | -62.16468 | 15999 ft | 383 kts | 308° |
| 2026-04-26 12:59 | 16.81789 | -62.18553 | 16000 ft | 383 kts | 308° |
| 2026-04-26 13:00 | 16.83559 | -62.20621 | 16000 ft | 383 kts | 308° |
| 2026-04-26 13:00 | 16.85355 | -62.22725 | 16001 ft | 383 kts | 308° |
| 2026-04-26 13:00 | 16.87129 | -62.24809 | 16000 ft | 383 kts | 308° |
| 2026-04-26 13:00 | 16.88894 | -62.26876 | 15998 ft | 383 kts | 308° |
| 2026-04-26 13:01 | 16.90695 | -62.28978 | 15996 ft | 383 kts | 308° |
| 2026-04-26 13:01 | 16.92453 | -62.31033 | 15996 ft | 383 kts | 308° |
| 2026-04-26 13:01 | 16.94254 | -62.33143 | 15995 ft | 383 kts | 308° |
| 2026-04-26 13:01 | 16.96008 | -62.35198 | 15993 ft | 383 kts | 308° |
| 2026-04-26 13:02 | 16.97799 | -62.37303 | 15991 ft | 383 kts | 308° |
| 2026-04-26 13:02 | 16.99575 | -62.39385 | 15992 ft | 382 kts | 308° |
| 2026-04-26 13:02 | 17.01352 | -62.41470 | 15993 ft | 383 kts | 308° |
| 2026-04-26 13:02 | 17.03121 | -62.43549 | 15992 ft | 383 kts | 308° |
| 2026-04-26 13:03 | 17.04896 | -62.45628 | 15986 ft | 382 kts | 308° |
| 2026-04-26 13:03 | 17.06678 | -62.47720 | 15989 ft | 382 kts | 308° |
| 2026-04-26 13:03 | 17.08437 | -62.49793 | 15990 ft | 382 kts | 308° |
| 2026-04-26 13:03 | 17.10213 | -62.51880 | 15982 ft | 382 kts | 308° |
| 2026-04-26 13:04 | 17.11979 | -62.53946 | 15990 ft | 382 kts | 309° |
| 2026-04-26 13:04 | 17.13885 | -62.55923 | 15994 ft | 384 kts | 314° |
| 2026-04-26 13:04 | 17.15905 | -62.57770 | 15996 ft | 384 kts | 316° |
| 2026-04-26 13:04 | 17.17929 | -62.59577 | 15996 ft | 384 kts | 316° |
| 2026-04-26 13:05 | 17.19966 | -62.61390 | 15993 ft | 383 kts | 316° |
| 2026-04-26 13:05 | 17.22006 | -62.63200 | 15995 ft | 384 kts | 316° |
| 2026-04-26 13:05 | 17.23693 | -62.64704 | 15996 ft | 383 kts | 316° |
| 2026-04-26 13:05 | 17.25763 | -62.66545 | 15995 ft | 383 kts | 316° |
| 2026-04-26 13:06 | 17.27792 | -62.68352 | 15995 ft | 384 kts | 315° |
| 2026-04-26 13:06 | 17.29837 | -62.70171 | 15982 ft | 384 kts | 316° |
| 2026-04-26 13:06 | 17.31881 | -62.71991 | 15691 ft | 387 kts | 316° |
| 2026-04-26 13:06 | 17.33967 | -62.73848 | 15024 ft | 386 kts | 316° |
| 2026-04-26 13:07 | 17.35984 | -62.75657 | 14289 ft | 381 kts | 316° |
| 2026-04-26 13:07 | 17.37958 | -62.77443 | 13553 ft | 377 kts | 316° |
| 2026-04-26 13:07 | 17.39954 | -62.79262 | 12821 ft | 373 kts | 316° |
| 2026-04-26 13:07 | 17.41885 | -62.81048 | 12061 ft | 369 kts | 316° |
| 2026-04-26 13:08 | 17.43794 | -62.82812 | 11327 ft | 366 kts | 316° |
| 2026-04-26 13:08 | 17.45687 | -62.84566 | 10582 ft | 363 kts | 316° |
| 2026-04-26 13:08 | 17.47571 | -62.86326 | 9864 ft | 355 kts | 316° |
| 2026-04-26 13:08 | 17.49378 | -62.88023 | 9118 ft | 344 kts | 316° |
| 2026-04-26 13:09 | 17.51123 | -62.89664 | 8377 ft | 335 kts | 316° |
| 2026-04-26 13:09 | 17.52835 | -62.91277 | 7635 ft | 328 kts | 316° |
| 2026-04-26 13:09 | 17.54531 | -62.92877 | 6886 ft | 322 kts | 316° |
| 2026-04-26 13:09 | 17.56176 | -62.94433 | 6133 ft | 318 kts | 316° |
| 2026-04-26 13:10 | 17.57803 | -62.95980 | 5304 ft | 317 kts | 316° |
| 2026-04-26 13:10 | 17.59433 | -62.97537 | 4484 ft | 315 kts | 316° |
| 2026-04-26 13:10 | 17.61031 | -62.99070 | 3896 ft | 305 kts | 316° |
| 2026-04-26 13:10 | 17.62557 | -63.00536 | 3679 ft | 284 kts | 316° |
| 2026-04-26 13:11 | 17.63963 | -63.01886 | 3672 ft | 272 kts | 316° |
| 2026-04-26 13:11 | 17.65378 | -63.03245 | 3674 ft | 275 kts | 316° |
| 2026-04-26 13:11 | 17.66807 | -63.04622 | 3690 ft | 273 kts | 316° |
| 2026-04-26 13:11 | 17.68202 | -63.05967 | 3540 ft | 274 kts | 316° |
| 2026-04-26 13:12 | 17.69612 | -63.07332 | 3025 ft | 274 kts | 316° |
| 2026-04-26 13:12 | 17.70997 | -63.08673 | 2557 ft | 269 kts | 316° |
| 2026-04-26 13:12 | 17.72344 | -63.09978 | 2457 ft | 256 kts | 316° |
| 2026-04-26 13:12 | 17.73640 | -63.11235 | 2459 ft | 250 kts | 316° |
| 2026-04-26 13:13 | 17.74980 | -63.12441 | 2460 ft | 251 kts | 326° |
| 2026-04-26 13:13 | 17.76519 | -63.13304 | 2467 ft | 251 kts | 334° |
| 2026-04-26 13:13 | 17.78112 | -63.14091 | 2465 ft | 249 kts | 335° |
| 2026-04-26 13:13 | 17.79686 | -63.14876 | 2464 ft | 251 kts | 334° |
| 2026-04-26 13:14 | 17.81274 | -63.15669 | 2462 ft | 250 kts | 335° |
| 2026-04-26 13:14 | 17.82853 | -63.16456 | 2465 ft | 250 kts | 334° |
| 2026-04-26 13:14 | 17.84412 | -63.17234 | 2464 ft | 244 kts | 334° |
| 2026-04-26 13:14 | 17.85898 | -63.18005 | 2465 ft | 232 kts | 333° |
| 2026-04-26 13:15 | 17.87336 | -63.18784 | 2466 ft | 230 kts | 333° |
| 2026-04-26 13:15 | 17.88769 | -63.19520 | 2467 ft | 230 kts | 335° |
| 2026-04-26 13:15 | 17.90211 | -63.20242 | 2338 ft | 227 kts | 335° |
| 2026-04-26 13:15 | 17.91643 | -63.20960 | 1901 ft | 228 kts | 335° |
| 2026-04-26 13:16 | 17.93068 | -63.21684 | 1569 ft | 224 kts | 334° |
| 2026-04-26 13:16 | 17.94449 | -63.22400 | 1551 ft | 213 kts | 334° |
| 2026-04-26 13:16 | 17.95733 | -63.23191 | 1562 ft | 213 kts | 322° |
| 2026-04-26 13:16 | 17.96743 | -63.24270 | 1564 ft | 201 kts | 306° |
| 2026-04-26 13:17 | 17.96769 | -63.26839 | 1561 ft | 196 kts | 258° |
| 2026-04-26 13:17 | 17.96894 | -63.28286 | 1616 ft | 201 kts | 284° |
| 2026-04-26 13:18 | 17.98815 | -63.30075 | 1588 ft | 194 kts | 351° |
| 2026-04-26 13:18 | 18.00178 | -63.30116 | 1558 ft | 192 kts | 19° |
| 2026-04-26 13:18 | 18.02463 | -63.28743 | 1569 ft | 187 kts | 46° |
| 2026-04-26 13:19 | 18.03296 | -63.27705 | 1571 ft | 185 kts | 60° |
| 2026-04-26 13:19 | 18.03634 | -63.26460 | 1544 ft | 179 kts | 108° |
| 2026-04-26 13:19 | 18.02955 | -63.25378 | 1591 ft | 180 kts | 129° |
| 2026-04-26 13:19 | 18.02294 | -63.24274 | 1559 ft | 178 kts | 109° |
| 2026-04-26 13:20 | 18.02226 | -63.22974 | 1570 ft | 181 kts | 76° |
| 2026-04-26 13:20 | 18.02808 | -63.21787 | 1571 ft | 183 kts | 64° |
| 2026-04-26 13:20 | 18.03246 | -63.20578 | 1564 ft | 168 kts | 79° |
| 2026-04-26 13:20 | 18.03311 | -63.19389 | 1509 ft | 163 kts | 96° |
| 2026-04-26 13:21 | 18.03283 | -63.18229 | 1524 ft | 153 kts | 94° |
| 2026-04-26 13:21 | 18.03271 | -63.17464 | 1347 ft | 160 kts | 89° |
| 2026-04-26 13:21 | 18.03374 | -63.15851 | 981 ft | 169 kts | 84° |
| 2026-04-26 13:21 | 18.03533 | -63.14594 | 654 ft | 176 kts | 82° |
| 2026-04-26 13:22 | 18.03753 | -63.13335 | 388 ft | 173 kts | 82° |
| 2026-04-26 13:22 | 18.03928 | -63.12117 | 71 ft | 164 kts | 84° |
| 2026-04-26 13:22 | 18.04066 | -63.11036 | 17 ft | 126 kts | 83° |
| 2026-04-26 13:22 | 18.04147 | -63.10460 | 19 ft | 56 kts | 79° |
| 2026-04-26 13:23 | 18.04201 | -63.10073 | 15 ft | 42 kts | 76° |
| 2026-04-26 13:23 | 18.04285 | -63.09865 | 13 ft | 15 kts | 108° |
| 2026-04-26 13:23 | 18.04242 | -63.09881 | 13 ft | 11 kts | 259° |
| 2026-04-26 13:23 | 18.04215 | -63.10042 | 15 ft | 32 kts | 259° |
| 2026-04-26 13:24 | 18.04168 | -63.10327 | 19 ft | 43 kts | 264° |
| 2026-04-26 13:24 | 18.04123 | -63.10657 | 16 ft | 48 kts | 261° |
| 2026-04-26 13:24 | 18.04069 | -63.11004 | 17 ft | 39 kts | 262° |
| 2026-04-26 13:24 | 18.04050 | -63.11232 | 19 ft | 30 kts | 290° |
| 2026-04-26 13:25 | 18.04196 | -63.11309 | 20 ft | 20 kts | 356° |
| 2026-04-26 13:25 | 18.04290 | -63.11289 | 21 ft | 11 kts | 342° |
| 2026-04-26 13:25 | 18.04231 | -63.11393 | 21 ft | 21 kts | 251° |
| 2026-04-26 13:25 | 18.04161 | -63.11560 | 23 ft | 34 kts | 219° |
| 2026-04-26 13:26 | 18.04055 | -63.11756 | 25 ft | 31 kts | 262° |
| 2026-04-26 13:26 | 18.04042 | -63.11854 | 26 ft | 6 kts | 262° |
| 2026-04-26 13:26 | 18.04039 | -63.11873 | 26 ft | 0 kts | 254° |
| 2026-04-26 13:27 | 18.04017 | -63.11924 | 26 ft | 19 kts | 237° |
| 2026-04-26 13:27 | 18.03952 | -63.11883 | 25 ft | 17 kts | 82° |
| 2026-04-26 13:28 | 18.03956 | -63.11852 | 25 ft | 0 kts | 82° |
| 2026-04-26 13:29 | 18.03971 | -63.11708 | 25 ft | 71 kts | 85° |
| 2026-04-26 13:30 | 18.04112 | -63.10779 | 111 ft | 172 kts | 78° |
| 2026-04-26 13:30 | 18.04480 | -63.09689 | 1651 ft | 162 kts | 64° |
| 2026-04-26 13:30 | 18.05175 | -63.09042 | 3093 ft | 137 kts | 41° |
| 2026-04-26 13:30 | 18.05765 | -63.08098 | 3521 ft | 174 kts | 56° |
| 2026-04-26 13:31 | 18.06880 | -63.07670 | 4331 ft | 193 kts | 346° |
| 2026-04-26 13:31 | 18.07786 | -63.08525 | 5350 ft | 191 kts | 283° |
| 2026-04-26 13:31 | 18.07795 | -63.10038 | 5684 ft | 229 kts | 258° |
| 2026-04-26 13:31 | 18.07196 | -63.11782 | 5396 ft | 273 kts | 242° |
| 2026-04-26 13:32 | 18.06071 | -63.13434 | 4984 ft | 278 kts | 229° |
| 2026-04-26 13:32 | 18.04995 | -63.15120 | 4550 ft | 277 kts | 247° |
| 2026-04-26 13:32 | 18.04839 | -63.17071 | 4153 ft | 268 kts | 280° |
| 2026-04-26 13:32 | 18.05331 | -63.18919 | 3993 ft | 257 kts | 282° |
| 2026-04-26 13:33 | 18.05505 | -63.20759 | 3971 ft | 255 kts | 266° |
| 2026-04-26 13:33 | 18.05384 | -63.22587 | 3973 ft | 245 kts | 262° |
| 2026-04-26 13:33 | 18.04934 | -63.24307 | 3812 ft | 245 kts | 249° |
| 2026-04-26 13:33 | 18.04250 | -63.25934 | 3370 ft | 242 kts | 238° |
| 2026-04-26 13:34 | 18.03309 | -63.27322 | 3144 ft | 225 kts | 212° |
| 2026-04-26 13:34 | 18.01940 | -63.27323 | 2874 ft | 202 kts | 150° |
| 2026-04-26 13:34 | 18.01008 | -63.26345 | 2690 ft | 190 kts | 104° |
| 2026-04-26 13:34 | 18.01084 | -63.25444 | 2534 ft | 188 kts | 62° |
| 2026-04-26 13:35 | 18.02168 | -63.24030 | 2077 ft | 186 kts | 70° |
| 2026-04-26 13:35 | 18.02386 | -63.22747 | 1951 ft | 166 kts | 86° |
| 2026-04-26 13:35 | 18.02548 | -63.21559 | 1616 ft | 161 kts | 79° |
| 2026-04-26 13:35 | 18.02895 | -63.20493 | 1514 ft | 152 kts | 65° |
| 2026-04-26 13:36 | 18.03297 | -63.19438 | 1471 ft | 154 kts | 82° |
| 2026-04-26 13:36 | 18.03365 | -63.18324 | 1072 ft | 155 kts | 92° |
| 2026-04-26 13:36 | 18.03272 | -63.17210 | 829 ft | 147 kts | 92° |
| 2026-04-26 13:36 | 18.03321 | -63.16137 | 580 ft | 157 kts | 84° |
| 2026-04-26 13:37 | 18.03550 | -63.15004 | 681 ft | 150 kts | 80° |
| 2026-04-26 13:37 | 18.03727 | -63.13914 | 378 ft | 152 kts | 85° |
| 2026-04-26 13:37 | 18.03812 | -63.12833 | 139 ft | 145 kts | 84° |
| 2026-04-26 13:37 | 18.03965 | -63.11826 | 28 ft | 132 kts | 84° |
| 2026-04-26 13:38 | 18.04072 | -63.10995 | 17 ft | 90 kts | 83° |
| 2026-04-26 13:38 | 18.04136 | -63.10570 | 17 ft | 43 kts | 72° |
| 2026-04-26 13:38 | 18.04170 | -63.10294 | 18 ft | 42 kts | 82° |
| 2026-04-26 13:38 | 18.04224 | -63.09994 | 15 ft | 33 kts | 73° |
| 2026-04-26 13:39 | 18.04276 | -63.09861 | 13 ft | 11 kts | 130° |
| 2026-04-26 13:39 | 18.04223 | -63.09929 | 14 ft | 22 kts | 267° |
| 2026-04-26 13:39 | 18.04193 | -63.10169 | 16 ft | 33 kts | 259° |
| 2026-04-26 13:39 | 18.04156 | -63.10434 | 19 ft | 38 kts | 259° |
| 2026-04-26 13:40 | 18.04117 | -63.10710 | 16 ft | 30 kts | 263° |
| 2026-04-26 13:40 | 18.04092 | -63.10925 | 16 ft | 32 kts | 260° |
| 2026-04-26 13:40 | 18.04050 | -63.11162 | 19 ft | 32 kts | 259° |
| 2026-04-26 13:40 | 18.04086 | -63.11284 | 19 ft | 17 kts | 346° |
| 2026-04-26 13:41 | 18.04208 | -63.11308 | 20 ft | 6 kts | 341° |
| 2026-04-26 13:41 | 18.04265 | -63.11349 | 21 ft | 13 kts | 340° |
| 2026-04-26 13:41 | 18.04327 | -63.11360 | 23 ft | 0 kts | 353° |